createdAt,value
2023-05-03T00:04:52.146Z,0
2023-05-03T00:08:54.881Z,0
2023-05-03T00:10:56.844Z,0
2023-05-03T00:14:59.659Z,0.561
2023-05-03T00:21:04.017Z,0.421
2023-05-03T00:25:07.181Z,0
2023-05-03T00:27:08.467Z,0
2023-05-03T00:31:10.940Z,0
2023-05-03T00:35:13.340Z,0
2023-05-03T00:37:14.928Z,0
2023-05-03T00:41:18.828Z,0.28
2023-05-03T00:47:22.917Z,0
2023-05-03T00:51:25.754Z,0
2023-05-03T00:53:26.788Z,0
2023-05-03T00:57:28.998Z,0.14
2023-05-03T01:01:32.014Z,0
2023-05-03T01:03:33.442Z,2.527
2023-05-03T01:07:36.063Z,0
2023-05-03T01:11:38.727Z,0.14
2023-05-03T01:13:39.917Z,0
2023-05-03T01:17:43.008Z,0
2023-05-03T01:19:44.028Z,0
2023-05-03T01:21:45.974Z,0
2023-05-03T01:23:47.101Z,0
2023-05-03T01:29:51.579Z,0
2023-05-03T01:31:53.149Z,0
2023-05-03T01:35:56.492Z,0
2023-05-03T01:39:59.430Z,0
2023-05-03T01:46:04.096Z,0
2023-05-03T01:50:06.555Z,0
2023-05-03T01:52:07.672Z,0
2023-05-03T01:56:10.786Z,0
2023-05-03T02:00:13.631Z,0
2023-05-03T02:02:15.116Z,0
2023-05-03T02:06:17.855Z,0
2023-05-03T02:12:21.601Z,0.842
2023-05-03T02:13:05.490Z,0.14
2023-05-03T02:17:08.706Z,0
2023-05-03T02:23:13.203Z,0
2023-05-03T02:27:17.012Z,0
2023-05-03T02:29:18.194Z,0
2023-05-03T02:33:21.610Z,0
2023-05-03T02:37:24.112Z,0
2023-05-03T02:39:25.986Z,0
2023-05-03T02:43:29.005Z,0.14
2023-05-03T02:49:32.915Z,3.088
2023-05-03T02:53:36.289Z,2.808
2023-05-03T02:55:38.065Z,1.684
2023-05-03T02:59:40.827Z,2.667
2023-05-03T03:05:45.419Z,0
2023-05-03T03:09:49.080Z,0.702
2023-05-03T03:11:50.541Z,0.28
2023-05-03T03:15:53.135Z,0.561
2023-05-03T03:19:56.080Z,0.982
2023-05-03T03:21:57.603Z,1.544
2023-05-03T03:26:00.500Z,0.982
2023-05-03T03:32:04.889Z,0.702
2023-05-03T03:36:07.304Z,0.28
2023-05-03T03:38:09.167Z,0
2023-05-03T03:42:11.850Z,0.561
2023-05-03T03:48:16.357Z,0
2023-05-03T03:54:21.136Z,0
2023-05-03T03:58:24.012Z,0
2023-05-03T04:02:27.181Z,0.421
2023-05-03T04:04:28.525Z,1.684
2023-05-03T04:08:31.624Z,0
2023-05-03T04:12:34.747Z,0
2023-05-03T04:14:35.985Z,0
2023-05-03T04:18:38.614Z,0
2023-05-03T04:20:39.909Z,0
2023-05-03T04:22:41.267Z,0
2023-05-03T04:24:42.664Z,0
2023-05-03T04:30:46.977Z,0
2023-05-03T04:34:49.877Z,0
2023-05-03T04:36:50.596Z,0
2023-05-03T04:40:52.978Z,0
2023-05-03T04:46:57.528Z,0
2023-05-03T04:51:00.338Z,0
2023-05-03T04:53:01.535Z,0
2023-05-03T04:57:14.019Z,0
2023-05-03T05:01:07.425Z,0
2023-05-03T05:03:08.860Z,0
2023-05-03T05:07:11.800Z,0
2023-05-03T05:13:15.948Z,0
2023-05-03T05:17:19.078Z,0
2023-05-03T05:19:20.913Z,0.561
2023-05-03T05:23:23.850Z,0
2023-05-03T05:29:28.276Z,2.527
2023-05-03T05:33:31.225Z,1.825
2023-05-03T05:35:33.074Z,2.527
2023-05-03T05:39:35.821Z,1.544
2023-05-03T05:43:38.153Z,0
2023-05-03T05:45:39.133Z,1.544
2023-05-03T05:49:41.802Z,1.263
2023-05-03T05:55:46.200Z,2.386
2023-05-03T05:59:48.379Z,3.51
2023-05-03T06:01:49.358Z,1.263
2023-05-03T06:05:52.728Z,2.246
2023-05-03T06:11:57.709Z,4.633
2023-05-03T06:16:00.193Z,3.229
2023-05-03T06:18:01.708Z,7.3
2023-05-03T06:22:04.110Z,0.702
2023-05-03T06:26:07.152Z,0.702
2023-05-03T06:28:08.759Z,4.212
2023-05-03T06:32:12.193Z,2.386
2023-05-03T06:36:15.057Z,5.756
2023-05-03T06:38:16.903Z,0.14
2023-05-03T06:42:19.969Z,2.386
2023-05-03T06:44:20.892Z,2.948
2023-05-03T06:46:22.098Z,4.773
2023-05-03T06:48:23.765Z,3.369
2023-05-03T06:54:28.434Z,3.65
2023-05-03T06:56:29.463Z,3.51
2023-05-03T07:00:32.707Z,4.773
2023-05-03T07:04:35.156Z,3.229
2023-05-03T07:10:39.671Z,6.739
2023-05-03T07:14:41.937Z,5.335
2023-05-03T07:16:43.684Z,3.51
2023-05-03T07:20:54.705Z,4.212
2023-05-03T07:24:49.774Z,6.598
2023-05-03T07:26:50.969Z,3.51
2023-05-03T07:30:54.000Z,5.616
2023-05-03T07:36:57.932Z,6.739
2023-05-03T07:41:00.520Z,3.088
2023-05-03T07:43:02.083Z,5.896
2023-05-03T07:47:05.427Z,5.616
2023-05-03T07:53:08.952Z,1.684
2023-05-03T07:57:12.445Z,4.492
2023-05-03T07:59:14.264Z,3.229
2023-05-03T08:03:17.368Z,5.896
2023-05-03T08:07:20.290Z,5.054
2023-05-03T08:09:21.995Z,7.722
2023-05-03T08:13:24.248Z,2.948
2023-05-03T08:19:30.081Z,1.965
2023-05-03T08:23:33.183Z,2.246
2023-05-03T08:25:34.700Z,5.054
2023-05-03T08:29:37.296Z,2.527
2023-05-03T08:35:41.279Z,4.773
2023-05-03T08:39:44.098Z,2.667
2023-05-03T08:41:45.307Z,2.246
2023-05-03T08:45:48.869Z,6.318
2023-05-03T08:49:51.905Z,6.739
2023-05-03T08:51:52.740Z,2.667
2023-05-03T08:55:54.758Z,4.633
2023-05-03T08:58:39.637Z,5.475
2023-05-03T09:02:42.254Z,8.845
2023-05-03T09:04:43.378Z,6.458
2023-05-03T09:06:44.284Z,4.773
2023-05-03T09:12:47.868Z,4.914
2023-05-03T09:18:51.400Z,5.896
2023-05-03T09:22:53.508Z,2.948
2023-05-03T09:28:58.216Z,5.475
2023-05-03T09:33:01.117Z,3.931
2023-05-03T09:35:02.842Z,2.106
2023-05-03T09:39:05.209Z,3.79
2023-05-03T09:43:07.455Z,1.263
2023-05-03T09:45:08.663Z,2.106
2023-05-03T09:49:11.312Z,2.527
2023-05-03T09:55:15.235Z,3.51
2023-05-03T09:59:17.894Z,0.982
2023-05-03T10:01:19.494Z,2.106
2023-05-03T10:05:22.166Z,5.194
2023-05-03T10:11:26.314Z,4.071
2023-05-03T10:15:28.763Z,7.3
2023-05-03T10:17:46.025Z,8.143
2023-05-03T10:21:33.260Z,3.79
2023-05-03T10:25:36.065Z,6.458
2023-05-03T10:27:37.521Z,5.194
2023-05-03T10:31:40.056Z,3.79
2023-05-03T10:37:43.936Z,2.246
2023-05-03T10:41:46.429Z,5.475
2023-05-03T10:43:47.822Z,1.544
2023-05-03T10:47:51.103Z,9.126
2023-05-03T10:53:54.718Z,6.879
2023-05-03T10:59:58.543Z,4.352
2023-05-03T11:04:01.410Z,5.335
2023-05-03T11:08:03.859Z,7.16
2023-05-03T11:10:05.172Z,3.369
2023-05-03T11:14:08.843Z,0.14
2023-05-03T11:18:11.385Z,3.79
2023-05-03T11:20:12.449Z,2.386
2023-05-03T11:24:15.017Z,2.106
2023-05-03T11:26:15.864Z,2.667
2023-05-03T11:32:19.712Z,6.177
2023-05-03T11:36:22.632Z,0.14
2023-05-03T11:42:27.023Z,8.143
2023-05-03T11:46:30.012Z,5.475
2023-05-03T11:48:31.233Z,5.475
2023-05-03T11:52:33.920Z,4.914
2023-05-03T11:56:37.206Z,0.842
2023-05-03T11:58:38.845Z,7.3
2023-05-03T12:02:42.286Z,1.123
2023-05-03T12:08:47.305Z,2.246
2023-05-03T12:12:52.480Z,2.106
2023-05-03T12:14:51.385Z,4.212
2023-05-03T12:24:58.367Z,6.037
2023-05-03T12:29:01.905Z,7.722
2023-05-03T12:31:01.511Z,6.037
2023-05-03T12:35:06.332Z,2.246
2023-05-03T12:39:09.135Z,4.914
2023-05-03T12:41:09.250Z,8.283
2023-05-03T12:49:14.814Z,5.054
2023-05-03T12:51:18.973Z,6.318
2023-05-03T12:55:18.270Z,0.14
2023-05-03T12:57:22.491Z,1.965
2023-05-03T12:59:39.846Z,0
2023-05-03T13:07:28.331Z,7.16
2023-05-03T13:13:28.060Z,6.458
2023-05-03T13:17:31.331Z,2.808
2023-05-03T13:23:34.478Z,4.212
2023-05-03T13:27:37.905Z,6.739
2023-05-03T13:29:38.909Z,6.037
2023-05-03T13:33:41.637Z,3.65
2023-05-03T13:37:44.417Z,5.756
2023-05-03T13:39:45.989Z,1.825
2023-05-03T13:43:48.628Z,5.194
2023-05-03T13:49:52.620Z,3.65
2023-05-03T13:53:55.181Z,2.106
2023-05-03T13:55:57.191Z,4.773
2023-05-03T14:00:00.152Z,3.229
2023-05-03T14:06:04.319Z,1.684
2023-05-03T14:10:06.781Z,3.79
2023-05-03T14:12:07.422Z,2.527
2023-05-03T14:16:09.962Z,0.14
2023-05-03T14:20:12.797Z,6.739
2023-05-03T14:22:13.883Z,5.616
2023-05-03T14:26:16.901Z,7.16
2023-05-03T14:32:20.848Z,9.266
2023-05-03T14:36:22.783Z,6.177
2023-05-03T14:38:23.826Z,4.352
2023-05-03T14:42:26.565Z,5.194
2023-05-03T14:48:31.292Z,3.088
2023-05-03T14:54:35.228Z,0.28
2023-05-03T14:58:37.874Z,8.143
2023-05-03T15:04:41.834Z,3.931
2023-05-03T15:08:44.223Z,5.475
2023-05-03T15:12:47.632Z,2.106
2023-05-03T15:14:49.256Z,0
2023-05-03T15:18:52.175Z,0.28
2023-05-03T15:20:53.224Z,1.544
2023-05-03T15:22:54.765Z,0.28
2023-05-03T15:24:55.722Z,5.616
2023-05-03T15:31:00.314Z,8.283
2023-05-03T15:33:01.513Z,5.475
2023-05-03T15:37:03.826Z,4.773
2023-05-03T15:41:07.214Z,4.914
2023-05-03T15:43:53.755Z,4.914
2023-05-03T15:45:55.246Z,3.369
2023-05-03T15:47:56.812Z,1.825
2023-05-03T15:51:59.686Z,0
2023-05-03T15:56:02.541Z,0.561
2023-05-03T15:58:04.287Z,2.106
2023-05-03T16:02:07.240Z,5.335
2023-05-03T16:08:11.028Z,1.684
2023-05-03T16:14:15.009Z,0.702
2023-05-03T16:18:17.697Z,2.527
2023-05-03T16:24:21.965Z,0.842
2023-05-03T16:28:25.493Z,2.386
2023-05-03T16:30:26.865Z,6.037
2023-05-03T16:34:29.932Z,3.79
2023-05-03T16:38:32.452Z,3.369
2023-05-03T16:40:33.342Z,3.79
2023-05-03T16:44:35.247Z,6.739
2023-05-03T16:50:38.589Z,0.982
2023-05-03T16:54:40.425Z,0.982
2023-05-03T16:56:41.456Z,2.527
2023-05-03T17:00:44.406Z,0.842
2023-05-03T17:06:48.965Z,3.51
2023-05-03T17:10:51.546Z,1.965
2023-05-03T17:12:52.755Z,0
2023-05-03T17:16:55.748Z,4.071
2023-05-03T17:20:58.472Z,0
2023-05-03T17:23:00.066Z,1.544
2023-05-03T17:27:02.344Z,1.123
2023-05-03T17:31:05.770Z,0.702
2023-05-03T17:33:06.875Z,0.28
2023-05-03T17:37:11.440Z,0.14
2023-05-03T17:39:11.170Z,2.667
2023-05-03T17:41:12.462Z,0.28
2023-05-03T17:43:13.824Z,0
2023-05-03T17:49:17.286Z,0.14
2023-05-03T17:51:19.256Z,1.965
2023-05-03T17:55:31.016Z,0.14
2023-05-03T17:59:25.502Z,0.982
2023-05-03T18:05:28.611Z,2.246
2023-05-03T18:09:31.644Z,0
2023-05-03T18:11:32.778Z,0
2023-05-03T18:15:36.748Z,0.14
2023-05-03T18:19:38.337Z,0.561
2023-05-03T18:21:40.150Z,0.421
2023-05-03T18:25:43.743Z,2.948
2023-05-03T18:31:46.685Z,0
2023-05-03T18:37:51.317Z,1.684
2023-05-03T18:41:54.209Z,1.123
2023-05-03T18:47:58.119Z,0
2023-05-03T18:52:01.831Z,0
2023-05-03T18:54:02.899Z,0
2023-05-03T18:58:06.272Z,0
2023-05-03T19:02:09.095Z,0
2023-05-03T19:04:10.150Z,0
2023-05-03T19:08:13.075Z,0
2023-05-03T19:14:17.069Z,0
2023-05-03T19:18:20.421Z,0.28
2023-05-03T19:20:22.031Z,0.561
2023-05-03T19:24:24.511Z,0
2023-05-03T19:30:29.447Z,0
2023-05-03T19:34:32.098Z,0
2023-05-03T19:36:33.638Z,0
2023-05-03T19:40:37.292Z,0.842
2023-05-03T19:44:39.483Z,0
2023-05-03T19:46:40.553Z,0
2023-05-03T19:50:42.533Z,0
2023-05-03T19:56:47.169Z,0
2023-05-03T20:00:49.954Z,0
2023-05-03T20:02:51.671Z,0
2023-05-03T20:06:54.500Z,0
2023-05-03T20:12:58.113Z,0
2023-05-03T20:19:02.493Z,0
2023-05-03T20:23:05.401Z,0
2023-05-03T20:29:09.618Z,0
2023-05-03T20:33:12.197Z,0
2023-05-03T20:37:15.415Z,0
2023-05-03T20:39:16.611Z,0
2023-05-03T20:43:19.476Z,0
2023-05-03T20:45:20.775Z,0
2023-05-03T20:47:21.806Z,0
2023-05-03T20:49:23.138Z,0
2023-05-03T20:55:27.050Z,0
2023-05-03T20:57:28.405Z,0
2023-05-03T21:01:31.442Z,0
2023-05-03T21:05:34.264Z,0
2023-05-03T21:11:38.474Z,0
2023-05-03T21:15:41.287Z,0
2023-05-03T21:17:42.793Z,0
2023-05-03T21:21:45.718Z,0
2023-05-03T21:25:48.594Z,0
2023-05-03T21:27:49.643Z,0
2023-05-03T21:31:53.060Z,0
2023-05-03T21:37:58.492Z,0
2023-05-03T21:44:02.958Z,0
2023-05-03T21:48:05.991Z,0
2023-05-03T21:54:10.427Z,0
2023-05-03T21:58:13.238Z,0
2023-05-03T22:00:15.082Z,0
2023-05-03T22:04:18.180Z,0
2023-05-03T22:08:20.976Z,0
2023-05-03T22:10:22.669Z,0
2023-05-03T22:14:25.369Z,0
2023-05-03T22:20:29.314Z,0
2023-05-03T22:24:32.160Z,0
2023-05-03T22:26:33.315Z,0
2023-05-03T22:31:20.285Z,0
2023-05-03T22:35:22.716Z,0
2023-05-03T22:37:24.036Z,0
2023-05-03T22:41:27.202Z,0
2023-05-03T22:45:29.608Z,0
2023-05-03T22:47:31.428Z,0
2023-05-03T22:51:34.847Z,0
2023-05-03T22:55:37.598Z,0
2023-05-03T22:57:39.155Z,0
2023-05-03T23:01:42.952Z,0
2023-05-03T23:03:44.152Z,0
2023-05-03T23:05:45.670Z,0
2023-05-03T23:07:47.418Z,0
2023-05-03T23:13:52.693Z,1.544
2023-05-03T23:19:57.077Z,0
2023-05-03T23:24:00.100Z,0
2023-05-03T23:30:04.456Z,0.561
2023-05-03T23:34:07.802Z,0
2023-05-03T23:38:11.496Z,0
2023-05-03T23:40:13.059Z,0
2023-05-03T23:44:15.799Z,0.28
2023-05-03T23:46:16.858Z,0
2023-05-03T23:48:18.800Z,0
2023-05-03T23:50:20.747Z,0
2023-05-03T23:56:25.471Z,0
